sensor_id;sensor_type;location;lat;lon;timestamp;P1;durP1;ratioP1;P2;durP2;ratioP2
1759;SDS011;877;46.266;20.062;2023-02-28T00:01:10;10.90;;;6.38;;
1759;SDS011;877;46.266;20.062;2023-02-28T00:03:38;9.07;;;5.90;;
1759;SDS011;877;46.266;20.062;2023-02-28T00:06:04;12.30;;;6.40;;
1759;SDS011;877;46.266;20.062;2023-02-28T00:08:31;10.80;;;6.18;;
1759;SDS011;877;46.266;20.062;2023-02-28T00:11:00;11.10;;;5.57;;
1759;SDS011;877;46.266;20.062;2023-02-28T00:13:27;12.15;;;5.80;;
1759;SDS011;877;46.266;20.062;2023-02-28T00:16:27;10.63;;;6.63;;
1759;SDS011;877;46.266;20.062;2023-02-28T00:18:46;13.90;;;8.98;;
1759;SDS011;877;46.266;20.062;2023-02-28T00:21:13;16.98;;;8.73;;
1759;SDS011;877;46.266;20.062;2023-02-28T00:23:40;14.48;;;8.35;;
1759;SDS011;877;46.266;20.062;2023-02-28T00:26:06;17.80;;;6.90;;
1759;SDS011;877;46.266;20.062;2023-02-28T00:28:32;14.30;;;6.80;;
1759;SDS011;877;46.266;20.062;2023-02-28T00:30:58;11.15;;;6.00;;
1759;SDS011;877;46.266;20.062;2023-02-28T00:33:25;11.65;;;6.20;;
1759;SDS011;877;46.266;20.062;2023-02-28T00:35:51;10.50;;;6.40;;
1759;SDS011;877;46.266;20.062;2023-02-28T00:38:17;10.18;;;6.30;;
1759;SDS011;877;46.266;20.062;2023-02-28T00:40:43;9.13;;;5.50;;
1759;SDS011;877;46.266;20.062;2023-02-28T00:43:09;9.50;;;5.57;;
1759;SDS011;877;46.266;20.062;2023-02-28T00:45:36;8.85;;;5.05;;
1759;SDS011;877;46.266;20.062;2023-02-28T00:48:03;12.35;;;7.18;;
1759;SDS011;877;46.266;20.062;2023-02-28T00:50:29;12.68;;;6.47;;
1759;SDS011;877;46.266;20.062;2023-02-28T00:52:55;13.25;;;7.95;;
1759;SDS011;877;46.266;20.062;2023-02-28T00:55:21;11.85;;;6.50;;
1759;SDS011;877;46.266;20.062;2023-02-28T00:57:47;9.27;;;5.70;;
1759;SDS011;877;46.266;20.062;2023-02-28T01:00:14;11.65;;;5.80;;
1759;SDS011;877;46.266;20.062;2023-02-28T01:02:40;11.65;;;6.00;;
1759;SDS011;877;46.266;20.062;2023-02-28T01:05:06;14.63;;;6.55;;
1759;SDS011;877;46.266;20.062;2023-02-28T01:07:32;11.40;;;5.70;;
1759;SDS011;877;46.266;20.062;2023-02-28T01:09:58;13.18;;;5.28;;
1759;SDS011;877;46.266;20.062;2023-02-28T01:12:25;11.07;;;6.95;;
1759;SDS011;877;46.266;20.062;2023-02-28T01:14:51;12.60;;;5.78;;
1759;SDS011;877;46.266;20.062;2023-02-28T01:17:17;12.50;;;5.28;;
1759;SDS011;877;46.266;20.062;2023-02-28T01:19:43;9.80;;;5.60;;
1759;SDS011;877;46.266;20.062;2023-02-28T01:22:09;12.77;;;5.53;;
1759;SDS011;877;46.266;20.062;2023-02-28T01:24:35;8.55;;;4.82;;
1759;SDS011;877;46.266;20.062;2023-02-28T01:27:03;9.10;;;5.90;;
1759;SDS011;877;46.266;20.062;2023-02-28T01:29:29;8.95;;;5.35;;
1759;SDS011;877;46.266;20.062;2023-02-28T01:31:55;12.23;;;5.75;;
1759;SDS011;877;46.266;20.062;2023-02-28T01:34:22;11.50;;;6.75;;
1759;SDS011;877;46.266;20.062;2023-02-28T01:36:49;9.18;;;5.40;;
1759;SDS011;877;46.266;20.062;2023-02-28T01:39:15;9.60;;;6.00;;
1759;SDS011;877;46.266;20.062;2023-02-28T01:41:41;10.52;;;5.63;;
1759;SDS011;877;46.266;20.062;2023-02-28T01:46:54;8.75;;;6.40;;
1759;SDS011;877;46.266;20.062;2023-02-28T01:49:20;13.82;;;6.18;;
1759;SDS011;877;46.266;20.062;2023-02-28T01:51:50;8.77;;;5.88;;
1759;SDS011;877;46.266;20.062;2023-02-28T01:54:19;12.90;;;5.88;;
1759;SDS011;877;46.266;20.062;2023-02-28T01:56:47;10.65;;;6.43;;
1759;SDS011;877;46.266;20.062;2023-02-28T01:59:19;13.63;;;7.18;;
1759;SDS011;877;46.266;20.062;2023-02-28T02:01:46;8.80;;;5.80;;
1759;SDS011;877;46.266;20.062;2023-02-28T02:04:12;11.20;;;7.03;;
1759;SDS011;877;46.266;20.062;2023-02-28T02:06:43;13.13;;;6.40;;
1759;SDS011;877;46.266;20.062;2023-02-28T02:09:10;10.52;;;6.35;;
1759;SDS011;877;46.266;20.062;2023-02-28T02:11:36;11.40;;;6.00;;
1759;SDS011;877;46.266;20.062;2023-02-28T02:32:35;13.02;;;6.45;;
1759;SDS011;877;46.266;20.062;2023-02-28T02:45:25;9.85;;;7.13;;
1759;SDS011;877;46.266;20.062;2023-02-28T02:47:52;12.93;;;6.40;;
1759;SDS011;877;46.266;20.062;2023-02-28T02:50:23;11.90;;;6.70;;
1759;SDS011;877;46.266;20.062;2023-02-28T02:52:52;13.05;;;7.78;;
1759;SDS011;877;46.266;20.062;2023-02-28T02:55:19;15.98;;;8.40;;
1759;SDS011;877;46.266;20.062;2023-02-28T02:57:53;13.30;;;8.02;;
1759;SDS011;877;46.266;20.062;2023-02-28T03:00:22;10.80;;;7.00;;
1759;SDS011;877;46.266;20.062;2023-02-28T03:02:50;10.68;;;7.10;;
1759;SDS011;877;46.266;20.062;2023-02-28T03:05:23;14.05;;;7.47;;
1759;SDS011;877;46.266;20.062;2023-02-28T03:07:51;10.63;;;6.40;;
1759;SDS011;877;46.266;20.062;2023-02-28T03:10:27;15.85;;;8.00;;
1759;SDS011;877;46.266;20.062;2023-02-28T03:12:58;13.50;;;6.63;;
1759;SDS011;877;46.266;20.062;2023-02-28T03:15:27;13.82;;;6.97;;
1759;SDS011;877;46.266;20.062;2023-02-28T03:18:01;13.00;;;6.55;;
1759;SDS011;877;46.266;20.062;2023-02-28T03:20:45;10.85;;;6.57;;
1759;SDS011;877;46.266;20.062;2023-02-28T03:23:18;12.73;;;7.60;;
1759;SDS011;877;46.266;20.062;2023-02-28T03:29:32;17.13;;;7.88;;
1759;SDS011;877;46.266;20.062;2023-02-28T03:31:41;13.98;;;6.82;;
1759;SDS011;877;46.266;20.062;2023-02-28T03:36:38;13.57;;;8.25;;
1759;SDS011;877;46.266;20.062;2023-02-28T03:39:09;11.07;;;7.28;;
1759;SDS011;877;46.266;20.062;2023-02-28T03:47:12;14.52;;;8.30;;
1759;SDS011;877;46.266;20.062;2023-02-28T03:49:46;19.73;;;9.73;;
1759;SDS011;877;46.266;20.062;2023-02-28T03:52:14;14.05;;;9.00;;
1759;SDS011;877;46.266;20.062;2023-02-28T03:54:44;13.70;;;7.05;;
1759;SDS011;877;46.266;20.062;2023-02-28T04:02:33;12.45;;;7.97;;
1759;SDS011;877;46.266;20.062;2023-02-28T04:04:59;12.23;;;7.85;;
1759;SDS011;877;46.266;20.062;2023-02-28T04:07:28;14.23;;;7.82;;
1759;SDS011;877;46.266;20.062;2023-02-28T04:10:02;11.55;;;7.75;;
1759;SDS011;877;46.266;20.062;2023-02-28T04:12:28;15.25;;;8.70;;
1759;SDS011;877;46.266;20.062;2023-02-28T04:14:54;17.67;;;9.77;;
1759;SDS011;877;46.266;20.062;2023-02-28T04:17:21;29.13;;;13.23;;
1759;SDS011;877;46.266;20.062;2023-02-28T04:19:47;16.35;;;8.77;;
1759;SDS011;877;46.266;20.062;2023-02-28T04:22:13;16.27;;;9.45;;
1759;SDS011;877;46.266;20.062;2023-02-28T04:24:39;15.23;;;7.57;;
1759;SDS011;877;46.266;20.062;2023-02-28T04:27:06;12.50;;;7.95;;
1759;SDS011;877;46.266;20.062;2023-02-28T04:29:34;9.48;;;6.70;;
1759;SDS011;877;46.266;20.062;2023-02-28T04:32:00;13.60;;;8.57;;
1759;SDS011;877;46.266;20.062;2023-02-28T04:34:27;13.90;;;7.90;;
1759;SDS011;877;46.266;20.062;2023-02-28T04:36:53;16.10;;;8.15;;
1759;SDS011;877;46.266;20.062;2023-02-28T04:39:20;15.07;;;8.63;;
1759;SDS011;877;46.266;20.062;2023-02-28T04:41:47;21.00;;;11.05;;
1759;SDS011;877;46.266;20.062;2023-02-28T04:44:13;28.48;;;12.30;;
1759;SDS011;877;46.266;20.062;2023-02-28T04:46:40;20.27;;;11.00;;
1759;SDS011;877;46.266;20.062;2023-02-28T04:49:06;17.75;;;9.43;;
1759;SDS011;877;46.266;20.062;2023-02-28T04:51:32;13.38;;;7.78;;
1759;SDS011;877;46.266;20.062;2023-02-28T04:53:58;10.65;;;6.45;;
1759;SDS011;877;46.266;20.062;2023-02-28T04:56:24;12.90;;;7.78;;
1759;SDS011;877;46.266;20.062;2023-02-28T04:58:50;15.15;;;7.30;;
1759;SDS011;877;46.266;20.062;2023-02-28T05:01:24;12.27;;;7.85;;
1759;SDS011;877;46.266;20.062;2023-02-28T05:03:51;10.43;;;6.70;;
1759;SDS011;877;46.266;20.062;2023-02-28T05:06:18;14.43;;;7.78;;
1759;SDS011;877;46.266;20.062;2023-02-28T05:08:45;16.35;;;8.27;;
1759;SDS011;877;46.266;20.062;2023-02-28T05:11:14;10.80;;;6.47;;
1759;SDS011;877;46.266;20.062;2023-02-28T05:13:40;14.77;;;7.60;;
1759;SDS011;877;46.266;20.062;2023-02-28T05:16:06;16.55;;;9.25;;
1759;SDS011;877;46.266;20.062;2023-02-28T05:18:33;21.85;;;10.93;;
1759;SDS011;877;46.266;20.062;2023-02-28T05:20:59;16.10;;;7.43;;
1759;SDS011;877;46.266;20.062;2023-02-28T05:23:27;11.60;;;6.75;;
1759;SDS011;877;46.266;20.062;2023-02-28T05:25:53;11.35;;;6.70;;
1759;SDS011;877;46.266;20.062;2023-02-28T05:28:20;14.30;;;7.63;;
1759;SDS011;877;46.266;20.062;2023-02-28T05:30:46;11.48;;;6.82;;
1759;SDS011;877;46.266;20.062;2023-02-28T05:33:14;13.80;;;7.90;;
1759;SDS011;877;46.266;20.062;2023-02-28T05:35:40;15.25;;;8.77;;
1759;SDS011;877;46.266;20.062;2023-02-28T05:38:08;13.85;;;7.88;;
1759;SDS011;877;46.266;20.062;2023-02-28T05:40:37;12.55;;;7.85;;
1759;SDS011;877;46.266;20.062;2023-02-28T05:43:03;14.25;;;8.43;;
1759;SDS011;877;46.266;20.062;2023-02-28T05:45:30;13.55;;;7.45;;
1759;SDS011;877;46.266;20.062;2023-02-28T05:47:56;13.35;;;7.47;;
1759;SDS011;877;46.266;20.062;2023-02-28T05:50:22;12.52;;;8.15;;
1759;SDS011;877;46.266;20.062;2023-02-28T05:52:51;17.52;;;9.05;;
1759;SDS011;877;46.266;20.062;2023-02-28T05:55:17;12.88;;;8.95;;
1759;SDS011;877;46.266;20.062;2023-02-28T05:57:43;14.15;;;7.18;;
1759;SDS011;877;46.266;20.062;2023-02-28T06:00:10;12.50;;;7.90;;
1759;SDS011;877;46.266;20.062;2023-02-28T06:02:38;16.17;;;9.07;;
1759;SDS011;877;46.266;20.062;2023-02-28T06:05:04;15.35;;;8.27;;
1759;SDS011;877;46.266;20.062;2023-02-28T06:07:30;14.10;;;8.73;;
1759;SDS011;877;46.266;20.062;2023-02-28T06:09:56;16.02;;;8.35;;
1759;SDS011;877;46.266;20.062;2023-02-28T06:12:22;14.48;;;8.30;;
1759;SDS011;877;46.266;20.062;2023-02-28T06:14:51;13.13;;;8.63;;
1759;SDS011;877;46.266;20.062;2023-02-28T06:17:18;14.65;;;8.35;;
1759;SDS011;877;46.266;20.062;2023-02-28T06:19:47;14.75;;;8.32;;
1759;SDS011;877;46.266;20.062;2023-02-28T06:22:13;13.45;;;7.70;;
1759;SDS011;877;46.266;20.062;2023-02-28T06:24:43;14.25;;;7.82;;
1759;SDS011;877;46.266;20.062;2023-02-28T06:27:11;15.63;;;8.68;;
1759;SDS011;877;46.266;20.062;2023-02-28T06:29:37;16.05;;;9.50;;
1759;SDS011;877;46.266;20.062;2023-02-28T06:32:06;18.38;;;10.40;;
1759;SDS011;877;46.266;20.062;2023-02-28T06:34:32;20.20;;;9.02;;
1759;SDS011;877;46.266;20.062;2023-02-28T06:37:03;27.40;;;12.10;;
1759;SDS011;877;46.266;20.062;2023-02-28T06:39:31;25.95;;;13.98;;
1759;SDS011;877;46.266;20.062;2023-02-28T06:41:59;20.50;;;11.23;;
1759;SDS011;877;46.266;20.062;2023-02-28T06:44:25;16.05;;;8.13;;
1759;SDS011;877;46.266;20.062;2023-02-28T06:46:51;15.25;;;8.90;;
1759;SDS011;877;46.266;20.062;2023-02-28T06:49:18;13.05;;;8.35;;
1759;SDS011;877;46.266;20.062;2023-02-28T06:51:45;13.90;;;6.75;;
1759;SDS011;877;46.266;20.062;2023-02-28T06:54:13;16.90;;;9.23;;
1759;SDS011;877;46.266;20.062;2023-02-28T06:56:40;11.35;;;7.45;;
1759;SDS011;877;46.266;20.062;2023-02-28T06:59:06;15.30;;;9.35;;
1759;SDS011;877;46.266;20.062;2023-02-28T07:01:33;17.33;;;11.68;;
1759;SDS011;877;46.266;20.062;2023-02-28T07:04:00;20.35;;;10.00;;
1759;SDS011;877;46.266;20.062;2023-02-28T07:06:27;23.92;;;12.95;;
1759;SDS011;877;46.266;20.062;2023-02-28T07:08:53;29.58;;;12.13;;
1759;SDS011;877;46.266;20.062;2023-02-28T07:11:22;14.23;;;9.45;;
1759;SDS011;877;46.266;20.062;2023-02-28T07:13:51;11.02;;;7.25;;
1759;SDS011;877;46.266;20.062;2023-02-28T07:16:17;15.30;;;7.57;;
1759;SDS011;877;46.266;20.062;2023-02-28T07:18:43;12.20;;;7.63;;
1759;SDS011;877;46.266;20.062;2023-02-28T07:21:10;12.82;;;7.93;;
1759;SDS011;877;46.266;20.062;2023-02-28T07:23:38;14.55;;;7.57;;
1759;SDS011;877;46.266;20.062;2023-02-28T07:26:05;12.98;;;8.27;;
1759;SDS011;877;46.266;20.062;2023-02-28T07:28:31;14.20;;;8.50;;
1759;SDS011;877;46.266;20.062;2023-02-28T07:31:08;15.32;;;8.40;;
1759;SDS011;877;46.266;20.062;2023-02-28T07:33:37;12.63;;;7.85;;
1759;SDS011;877;46.266;20.062;2023-02-28T07:36:04;17.80;;;8.80;;
1759;SDS011;877;46.266;20.062;2023-02-28T07:38:33;14.55;;;9.00;;
1759;SDS011;877;46.266;20.062;2023-02-28T07:41:00;12.38;;;8.48;;
1759;SDS011;877;46.266;20.062;2023-02-28T07:43:30;13.98;;;8.23;;
1759;SDS011;877;46.266;20.062;2023-02-28T07:46:01;18.27;;;8.13;;
1759;SDS011;877;46.266;20.062;2023-02-28T07:48:28;14.43;;;7.78;;
1759;SDS011;877;46.266;20.062;2023-02-28T07:50:55;12.18;;;6.88;;
1759;SDS011;877;46.266;20.062;2023-02-28T07:53:22;12.65;;;8.25;;
1759;SDS011;877;46.266;20.062;2023-02-28T07:55:48;15.18;;;8.75;;
1759;SDS011;877;46.266;20.062;2023-02-28T07:58:16;16.75;;;9.23;;
1759;SDS011;877;46.266;20.062;2023-02-28T08:00:43;14.10;;;9.70;;
1759;SDS011;877;46.266;20.062;2023-02-28T08:03:11;14.85;;;9.10;;
1759;SDS011;877;46.266;20.062;2023-02-28T08:05:38;17.83;;;7.97;;
1759;SDS011;877;46.266;20.062;2023-02-28T08:08:05;14.27;;;8.35;;
1759;SDS011;877;46.266;20.062;2023-02-28T08:10:32;13.15;;;7.68;;
1759;SDS011;877;46.266;20.062;2023-02-28T08:12:59;14.77;;;7.80;;
1759;SDS011;877;46.266;20.062;2023-02-28T08:15:26;10.68;;;6.57;;
1759;SDS011;877;46.266;20.062;2023-02-28T08:17:52;12.38;;;7.85;;
1759;SDS011;877;46.266;20.062;2023-02-28T08:20:18;15.10;;;8.43;;
1759;SDS011;877;46.266;20.062;2023-02-28T08:22:45;13.02;;;7.93;;
1759;SDS011;877;46.266;20.062;2023-02-28T08:25:12;13.90;;;8.40;;
1759;SDS011;877;46.266;20.062;2023-02-28T08:27:41;12.35;;;7.40;;
1759;SDS011;877;46.266;20.062;2023-02-28T08:30:07;14.30;;;7.05;;
1759;SDS011;877;46.266;20.062;2023-02-28T08:32:35;15.27;;;9.10;;
1759;SDS011;877;46.266;20.062;2023-02-28T08:35:01;14.23;;;7.85;;
1759;SDS011;877;46.266;20.062;2023-02-28T08:37:28;15.73;;;9.25;;
1759;SDS011;877;46.266;20.062;2023-02-28T08:39:54;17.48;;;9.75;;
1759;SDS011;877;46.266;20.062;2023-02-28T08:42:21;14.25;;;8.68;;
1759;SDS011;877;46.266;20.062;2023-02-28T08:44:48;16.15;;;9.80;;
1759;SDS011;877;46.266;20.062;2023-02-28T08:47:16;13.85;;;8.70;;
1759;SDS011;877;46.266;20.062;2023-02-28T08:49:42;15.73;;;8.40;;
1759;SDS011;877;46.266;20.062;2023-02-28T08:52:10;14.90;;;8.15;;
1759;SDS011;877;46.266;20.062;2023-02-28T08:54:36;12.52;;;8.10;;
1759;SDS011;877;46.266;20.062;2023-02-28T08:57:04;15.80;;;8.90;;
1759;SDS011;877;46.266;20.062;2023-02-28T08:59:30;17.45;;;10.13;;
1759;SDS011;877;46.266;20.062;2023-02-28T09:01:58;20.30;;;10.15;;
1759;SDS011;877;46.266;20.062;2023-02-28T09:04:24;16.30;;;8.88;;
1759;SDS011;877;46.266;20.062;2023-02-28T09:06:52;13.32;;;8.30;;
1759;SDS011;877;46.266;20.062;2023-02-28T09:09:20;16.75;;;9.90;;
1759;SDS011;877;46.266;20.062;2023-02-28T09:11:48;15.50;;;9.40;;
1759;SDS011;877;46.266;20.062;2023-02-28T09:14:15;13.43;;;8.65;;
1759;SDS011;877;46.266;20.062;2023-02-28T09:16:44;18.13;;;9.07;;
1759;SDS011;877;46.266;20.062;2023-02-28T09:19:11;16.17;;;8.25;;
1759;SDS011;877;46.266;20.062;2023-02-28T09:21:37;15.57;;;8.57;;
1759;SDS011;877;46.266;20.062;2023-02-28T09:24:03;14.10;;;8.02;;
1759;SDS011;877;46.266;20.062;2023-02-28T09:26:32;14.40;;;8.88;;
1759;SDS011;877;46.266;20.062;2023-02-28T09:28:59;20.02;;;10.50;;
1759;SDS011;877;46.266;20.062;2023-02-28T09:31:27;14.25;;;7.90;;
1759;SDS011;877;46.266;20.062;2023-02-28T09:33:54;19.75;;;9.75;;
1759;SDS011;877;46.266;20.062;2023-02-28T09:36:21;20.52;;;9.30;;
1759;SDS011;877;46.266;20.062;2023-02-28T09:38:48;14.90;;;9.13;;
1759;SDS011;877;46.266;20.062;2023-02-28T09:43:44;14.73;;;9.32;;
1759;SDS011;877;46.266;20.062;2023-02-28T09:48:44;15.15;;;9.27;;
1759;SDS011;877;46.266;20.062;2023-02-28T09:54:15;18.38;;;8.85;;
1759;SDS011;877;46.266;20.062;2023-02-28T09:57:04;18.13;;;9.65;;
1759;SDS011;877;46.266;20.062;2023-02-28T10:08:17;15.93;;;9.10;;
1759;SDS011;877;46.266;20.062;2023-02-28T10:11:03;16.80;;;9.10;;
1759;SDS011;877;46.266;20.062;2023-02-28T10:13:46;15.88;;;9.13;;
1759;SDS011;877;46.266;20.062;2023-02-28T10:25:32;17.65;;;10.02;;
1759;SDS011;877;46.266;20.062;2023-02-28T10:28:13;23.40;;;11.45;;
1759;SDS011;877;46.266;20.062;2023-02-28T10:33:34;18.95;;;9.35;;
1759;SDS011;877;46.266;20.062;2023-02-28T10:36:01;13.95;;;10.27;;
1759;SDS011;877;46.266;20.062;2023-02-28T10:38:33;14.48;;;8.35;;
1759;SDS011;877;46.266;20.062;2023-02-28T10:43:32;17.25;;;9.18;;
1759;SDS011;877;46.266;20.062;2023-02-28T10:51:14;19.90;;;9.73;;
1759;SDS011;877;46.266;20.062;2023-02-28T10:53:51;21.83;;;10.95;;
1759;SDS011;877;46.266;20.062;2023-02-28T10:56:18;16.58;;;10.00;;
1759;SDS011;877;46.266;20.062;2023-02-28T10:58:54;17.13;;;9.57;;
1759;SDS011;877;46.266;20.062;2023-02-28T11:03:52;19.55;;;10.25;;
1759;SDS011;877;46.266;20.062;2023-02-28T11:06:20;16.00;;;9.68;;
1759;SDS011;877;46.266;20.062;2023-02-28T11:08:54;17.27;;;9.55;;
1759;SDS011;877;46.266;20.062;2023-02-28T11:16:38;18.30;;;9.93;;
1759;SDS011;877;46.266;20.062;2023-02-28T11:19:06;22.58;;;11.20;;
1759;SDS011;877;46.266;20.062;2023-02-28T11:21:36;24.73;;;12.95;;
1759;SDS011;877;46.266;20.062;2023-02-28T11:26:51;22.27;;;11.43;;
1759;SDS011;877;46.266;20.062;2023-02-28T11:31:54;16.85;;;9.85;;
1759;SDS011;877;46.266;20.062;2023-02-28T11:34:27;20.80;;;9.30;;
1759;SDS011;877;46.266;20.062;2023-02-28T11:36:54;21.17;;;10.48;;
1759;SDS011;877;46.266;20.062;2023-02-28T11:39:21;73.70;;;39.00;;
1759;SDS011;877;46.266;20.062;2023-02-28T11:57:35;20.92;;;11.07;;
1759;SDS011;877;46.266;20.062;2023-02-28T12:00:06;20.20;;;9.98;;
1759;SDS011;877;46.266;20.062;2023-02-28T12:02:48;15.98;;;9.43;;
1759;SDS011;877;46.266;20.062;2023-02-28T12:05:21;15.27;;;9.80;;
1759;SDS011;877;46.266;20.062;2023-02-28T12:10:23;18.17;;;11.02;;
1759;SDS011;877;46.266;20.062;2023-02-28T12:20:33;19.63;;;11.65;;
1759;SDS011;877;46.266;20.062;2023-02-28T12:28:20;19.17;;;10.55;;
1759;SDS011;877;46.266;20.062;2023-02-28T12:30:53;16.52;;;9.50;;
1759;SDS011;877;46.266;20.062;2023-02-28T12:33:21;14.75;;;10.30;;
1759;SDS011;877;46.266;20.062;2023-02-28T12:35:55;16.95;;;10.77;;
1759;SDS011;877;46.266;20.062;2023-02-28T12:40:53;22.58;;;11.73;;
1759;SDS011;877;46.266;20.062;2023-02-28T12:43:20;23.02;;;12.93;;
1759;SDS011;877;46.266;20.062;2023-02-28T12:45:50;26.60;;;14.70;;
1759;SDS011;877;46.266;20.062;2023-02-28T12:48:24;25.60;;;12.95;;
1759;SDS011;877;46.266;20.062;2023-02-28T12:50:51;21.60;;;11.00;;
1759;SDS011;877;46.266;20.062;2023-02-28T12:53:26;21.45;;;11.05;;
1759;SDS011;877;46.266;20.062;2023-02-28T12:56:01;21.08;;;11.20;;
1759;SDS011;877;46.266;20.062;2023-02-28T12:58:33;23.35;;;11.05;;
1759;SDS011;877;46.266;20.062;2023-02-28T13:01:10;22.50;;;11.43;;
1759;SDS011;877;46.266;20.062;2023-02-28T13:06:17;26.50;;;15.05;;
1759;SDS011;877;46.266;20.062;2023-02-28T13:11:38;29.50;;;17.00;;
1759;SDS011;877;46.266;20.062;2023-02-28T13:14:06;36.15;;;16.52;;
1759;SDS011;877;46.266;20.062;2023-02-28T13:19:18;30.02;;;14.98;;
1759;SDS011;877;46.266;20.062;2023-02-28T13:21:46;24.02;;;12.55;;
1759;SDS011;877;46.266;20.062;2023-02-28T13:24:35;18.13;;;11.35;;
1759;SDS011;877;46.266;20.062;2023-02-28T13:32:18;21.08;;;11.98;;
1759;SDS011;877;46.266;20.062;2023-02-28T13:34:42;21.10;;;11.35;;
1759;SDS011;877;46.266;20.062;2023-02-28T13:39:52;33.60;;;15.52;;
1759;SDS011;877;46.266;20.062;2023-02-28T13:47:32;24.45;;;13.88;;
1759;SDS011;877;46.266;20.062;2023-02-28T13:52:48;23.00;;;11.25;;
1759;SDS011;877;46.266;20.062;2023-02-28T14:05:30;33.35;;;18.10;;
1759;SDS011;877;46.266;20.062;2023-02-28T14:07:58;32.28;;;15.23;;
1759;SDS011;877;46.266;20.062;2023-02-28T14:12:55;22.30;;;13.45;;
1759;SDS011;877;46.266;20.062;2023-02-28T14:18:01;21.00;;;11.57;;
1759;SDS011;877;46.266;20.062;2023-02-28T14:20:29;106.80;;;59.10;;
1759;SDS011;877;46.266;20.062;2023-02-28T14:33:27;33.17;;;20.50;;
1759;SDS011;877;46.266;20.062;2023-02-28T14:38:35;101.22;;;45.00;;
1759;SDS011;877;46.266;20.062;2023-02-28T14:41:04;45.88;;;23.75;;
1759;SDS011;877;46.266;20.062;2023-02-28T14:43:31;27.98;;;15.48;;
1759;SDS011;877;46.266;20.062;2023-02-28T14:45:59;46.72;;;21.33;;
1759;SDS011;877;46.266;20.062;2023-02-28T14:48:26;54.70;;;25.65;;
1759;SDS011;877;46.266;20.062;2023-02-28T14:50:53;44.63;;;20.55;;
1759;SDS011;877;46.266;20.062;2023-02-28T14:53:21;100.07;;;42.85;;
1759;SDS011;877;46.266;20.062;2023-02-28T14:55:48;42.22;;;22.63;;
1759;SDS011;877;46.266;20.062;2023-02-28T14:58:21;54.10;;;26.30;;
1759;SDS011;877;46.266;20.062;2023-02-28T15:00:49;140.50;;;61.05;;
1759;SDS011;877;46.266;20.062;2023-02-28T15:03:35;170.20;;;68.55;;
1759;SDS011;877;46.266;20.062;2023-02-28T15:06:03;148.05;;;59.85;;
1759;SDS011;877;46.266;20.062;2023-02-28T15:08:29;291.73;;;116.55;;
1759;SDS011;877;46.266;20.062;2023-02-28T15:11:07;182.35;;;73.70;;
1759;SDS011;877;46.266;20.062;2023-02-28T15:16:03;192.90;;;92.95;;
1759;SDS011;877;46.266;20.062;2023-02-28T15:21:01;54.13;;;30.05;;
1759;SDS011;877;46.266;20.062;2023-02-28T15:23:28;78.78;;;43.63;;
1759;SDS011;877;46.266;20.062;2023-02-28T15:25:55;110.00;;;56.30;;
1759;SDS011;877;46.266;20.062;2023-02-28T15:28:22;67.68;;;34.60;;
1759;SDS011;877;46.266;20.062;2023-02-28T15:30:56;89.97;;;52.33;;
1759;SDS011;877;46.266;20.062;2023-02-28T15:33:24;148.43;;;82.82;;
1759;SDS011;877;46.266;20.062;2023-02-28T15:35:50;101.35;;;58.78;;
1759;SDS011;877;46.266;20.062;2023-02-28T15:38:18;58.65;;;40.72;;
1759;SDS011;877;46.266;20.062;2023-02-28T15:40:51;69.00;;;46.10;;
1759;SDS011;877;46.266;20.062;2023-02-28T15:43:25;37.13;;;22.17;;
1759;SDS011;877;46.266;20.062;2023-02-28T15:48:31;57.70;;;30.30;;
1759;SDS011;877;46.266;20.062;2023-02-28T15:53:39;48.33;;;33.05;;
1759;SDS011;877;46.266;20.062;2023-02-28T15:56:14;32.95;;;20.98;;
1759;SDS011;877;46.266;20.062;2023-02-28T15:58:42;33.58;;;21.90;;
1759;SDS011;877;46.266;20.062;2023-02-28T16:03:51;38.97;;;23.15;;
1759;SDS011;877;46.266;20.062;2023-02-28T16:06:24;32.72;;;21.40;;
1759;SDS011;877;46.266;20.062;2023-02-28T16:08:55;30.08;;;19.40;;
1759;SDS011;877;46.266;20.062;2023-02-28T16:11:21;33.25;;;25.58;;
1759;SDS011;877;46.266;20.062;2023-02-28T16:13:47;41.40;;;24.33;;
1759;SDS011;877;46.266;20.062;2023-02-28T16:16:15;41.17;;;26.05;;
1759;SDS011;877;46.266;20.062;2023-02-28T16:18:42;28.75;;;18.40;;
1759;SDS011;877;46.266;20.062;2023-02-28T16:21:08;27.50;;;17.77;;
1759;SDS011;877;46.266;20.062;2023-02-28T16:23:34;25.73;;;14.60;;
1759;SDS011;877;46.266;20.062;2023-02-28T16:26:02;28.85;;;15.98;;
1759;SDS011;877;46.266;20.062;2023-02-28T16:28:35;27.65;;;16.75;;
1759;SDS011;877;46.266;20.062;2023-02-28T16:31:03;24.23;;;15.90;;
1759;SDS011;877;46.266;20.062;2023-02-28T16:33:33;29.83;;;16.70;;
1759;SDS011;877;46.266;20.062;2023-02-28T16:35:59;29.10;;;18.10;;
1759;SDS011;877;46.266;20.062;2023-02-28T16:38:25;46.65;;;24.70;;
1759;SDS011;877;46.266;20.062;2023-02-28T16:40:51;49.67;;;24.65;;
1759;SDS011;877;46.266;20.062;2023-02-28T16:43:19;35.78;;;22.08;;
1759;SDS011;877;46.266;20.062;2023-02-28T16:45:48;34.15;;;19.95;;
1759;SDS011;877;46.266;20.062;2023-02-28T16:48:15;32.58;;;20.05;;
1759;SDS011;877;46.266;20.062;2023-02-28T16:50:42;33.50;;;21.40;;
1759;SDS011;877;46.266;20.062;2023-02-28T16:53:09;41.53;;;25.35;;
1759;SDS011;877;46.266;20.062;2023-02-28T16:55:36;34.00;;;22.58;;
1759;SDS011;877;46.266;20.062;2023-02-28T16:58:02;31.23;;;19.52;;
1759;SDS011;877;46.266;20.062;2023-02-28T17:00:29;30.83;;;17.77;;
1759;SDS011;877;46.266;20.062;2023-02-28T17:02:56;29.50;;;17.70;;
1759;SDS011;877;46.266;20.062;2023-02-28T17:05:25;28.45;;;15.95;;
1759;SDS011;877;46.266;20.062;2023-02-28T17:07:52;33.60;;;18.50;;
1759;SDS011;877;46.266;20.062;2023-02-28T17:10:20;35.20;;;22.33;;
1759;SDS011;877;46.266;20.062;2023-02-28T17:12:46;30.50;;;17.58;;
1759;SDS011;877;46.266;20.062;2023-02-28T17:15:13;56.45;;;34.08;;
1759;SDS011;877;46.266;20.062;2023-02-28T17:17:40;47.38;;;27.30;;
1759;SDS011;877;46.266;20.062;2023-02-28T17:20:06;42.95;;;25.50;;
1759;SDS011;877;46.266;20.062;2023-02-28T17:22:33;59.97;;;31.17;;
1759;SDS011;877;46.266;20.062;2023-02-28T17:24:59;54.70;;;27.98;;
1759;SDS011;877;46.266;20.062;2023-02-28T17:27:25;28.45;;;17.10;;
1759;SDS011;877;46.266;20.062;2023-02-28T17:29:51;31.05;;;17.42;;
1759;SDS011;877;46.266;20.062;2023-02-28T17:32:18;31.40;;;16.70;;
1759;SDS011;877;46.266;20.062;2023-02-28T17:34:44;31.50;;;15.77;;
1759;SDS011;877;46.266;20.062;2023-02-28T17:37:10;31.23;;;17.13;;
1759;SDS011;877;46.266;20.062;2023-02-28T17:39:37;38.08;;;17.75;;
1759;SDS011;877;46.266;20.062;2023-02-28T17:42:03;26.77;;;17.27;;
1759;SDS011;877;46.266;20.062;2023-02-28T17:44:29;38.00;;;21.05;;
1759;SDS011;877;46.266;20.062;2023-02-28T17:46:55;36.20;;;22.00;;
1759;SDS011;877;46.266;20.062;2023-02-28T17:49:21;33.13;;;21.50;;
1759;SDS011;877;46.266;20.062;2023-02-28T17:51:48;32.03;;;19.63;;
1759;SDS011;877;46.266;20.062;2023-02-28T17:54:15;39.28;;;22.60;;
1759;SDS011;877;46.266;20.062;2023-02-28T17:56:41;43.17;;;24.13;;
1759;SDS011;877;46.266;20.062;2023-02-28T17:59:11;39.88;;;24.75;;
1759;SDS011;877;46.266;20.062;2023-02-28T18:01:38;59.38;;;31.58;;
1759;SDS011;877;46.266;20.062;2023-02-28T18:04:04;53.08;;;33.25;;
1759;SDS011;877;46.266;20.062;2023-02-28T18:06:34;44.75;;;26.35;;
1759;SDS011;877;46.266;20.062;2023-02-28T18:09:01;43.20;;;24.52;;
1759;SDS011;877;46.266;20.062;2023-02-28T18:11:27;42.00;;;23.75;;
1759;SDS011;877;46.266;20.062;2023-02-28T18:14:06;42.67;;;24.27;;
1759;SDS011;877;46.266;20.062;2023-02-28T18:16:32;38.08;;;21.45;;
1759;SDS011;877;46.266;20.062;2023-02-28T18:18:59;45.75;;;22.65;;